sensor_id;sensor_type;location;lat;lon;timestamp;pressure;altitude;pressure_sealevel;temperature;humidity
29197;BME280;62796;42.654;23.316;2023-04-02T00:00:34;93684.22;;;10.34;45.29
29197;BME280;62796;42.654;23.316;2023-04-02T00:03:02;93684.97;;;10.40;45.10
29197;BME280;62796;42.654;23.316;2023-04-02T00:08:37;93683.47;;;10.28;45.16
29197;BME280;62796;42.654;23.316;2023-04-02T00:11:05;93684.47;;;10.47;45.25
29197;BME280;62796;42.654;23.316;2023-04-02T00:13:35;93678.69;;;10.28;45.09
29197;BME280;62796;42.654;23.316;2023-04-02T00:16:06;93686.50;;;10.30;45.30
29197;BME280;62796;42.654;23.316;2023-04-02T00:18:38;93690.22;;;10.54;45.06
29197;BME280;62796;42.654;23.316;2023-04-02T00:21:34;93598.69;;;10.08;44.81
29197;BME280;62796;42.654;23.316;2023-04-02T00:24:00;93688.72;;;10.42;44.79
29197;BME280;62796;42.654;23.316;2023-04-02T00:26:38;93678.19;;;10.24;45.15
29197;BME280;62796;42.654;23.316;2023-04-02T00:29:08;93660.59;;;10.27;44.62
29197;BME280;62796;42.654;23.316;2023-04-02T00:31:38;93668.63;;;10.47;44.23
29197;BME280;62796;42.654;23.316;2023-04-02T00:34:08;93673.13;;;10.39;44.25
29197;BME280;62796;42.654;23.316;2023-04-02T00:36:35;93670.59;;;10.52;44.34
29197;BME280;62796;42.654;23.316;2023-04-02T00:39:03;93667.56;;;10.62;44.32
29197;BME280;62796;42.654;23.316;2023-04-02T00:41:36;93672.31;;;10.72;43.58
29197;BME280;62796;42.654;23.316;2023-04-02T00:44:03;93669.06;;;10.74;44.17
29197;BME280;62796;42.654;23.316;2023-04-02T00:46:39;93674.59;;;10.74;44.40
29197;BME280;62796;42.654;23.316;2023-04-02T00:49:31;93663.06;;;10.59;43.69
29197;BME280;62796;42.654;23.316;2023-04-02T00:52:02;93679.16;;;10.66;43.86
29197;BME280;62796;42.654;23.316;2023-04-02T00:54:31;93653.25;;;10.63;44.37
29197;BME280;62796;42.654;23.316;2023-04-02T00:56:58;93666.53;;;10.76;44.07
29197;BME280;62796;42.654;23.316;2023-04-02T00:59:30;93665.50;;;10.79;43.85
29197;BME280;62796;42.654;23.316;2023-04-02T01:04:39;93663.56;;;10.40;44.16
29197;BME280;62796;42.654;23.316;2023-04-02T01:07:08;93661.53;;;10.57;43.73
29197;BME280;62796;42.654;23.316;2023-04-02T01:15:41;93660.53;;;10.66;43.99
29197;BME280;62796;42.654;23.316;2023-04-02T01:18:19;93667.31;;;10.65;43.80
29197;BME280;62796;42.654;23.316;2023-04-02T01:23:52;93672.59;;;10.69;42.97
29197;BME280;62796;42.654;23.316;2023-04-02T01:26:33;93678.16;;;10.57;42.76
29197;BME280;62796;42.654;23.316;2023-04-02T01:31:33;93678.69;;;10.50;43.41
29197;BME280;62796;42.654;23.316;2023-04-02T01:34:01;93678.88;;;10.64;43.69
29197;BME280;62796;42.654;23.316;2023-04-02T01:36:38;93687.66;;;10.79;42.80
29197;BME280;62796;42.654;23.316;2023-04-02T01:44:43;93680.66;;;10.78;43.24
29197;BME280;62796;42.654;23.316;2023-04-02T01:47:13;93679.13;;;10.77;42.68
29197;BME280;62796;42.654;23.316;2023-04-02T01:49:41;93670.81;;;10.82;42.61
29197;BME280;62796;42.654;23.316;2023-04-02T01:52:08;93666.78;;;10.83;42.61
29197;BME280;62796;42.654;23.316;2023-04-02T01:54:38;93668.25;;;10.95;42.38
29197;BME280;62796;42.654;23.316;2023-04-02T01:57:06;93675.06;;;10.89;42.21
29197;BME280;62796;42.654;23.316;2023-04-02T01:59:31;93663.53;;;10.74;42.63
29197;BME280;62796;42.654;23.316;2023-04-02T02:02:01;93665.00;;;10.86;42.61
29197;BME280;62796;42.654;23.316;2023-04-02T02:04:27;93665.50;;;10.90;42.64
29197;BME280;62796;42.654;23.316;2023-04-02T02:06:55;93674.56;;;10.96;42.35
29197;BME280;62796;42.654;23.316;2023-04-02T02:09:25;93668.00;;;10.88;44.12
29197;BME280;62796;42.654;23.316;2023-04-02T02:11:51;93685.63;;;10.96;44.97
29197;BME280;62796;42.654;23.316;2023-04-02T02:16:43;93669.75;;;10.96;46.19
29197;BME280;62796;42.654;23.316;2023-04-02T02:19:19;93677.78;;;11.00;46.50
29197;BME280;62796;42.654;23.316;2023-04-02T02:21:51;93678.53;;;11.06;46.20
29197;BME280;62796;42.654;23.316;2023-04-02T02:24:26;93687.84;;;11.08;45.90
29197;BME280;62796;42.654;23.316;2023-04-02T02:30:04;93691.13;;;11.07;46.47
29197;BME280;62796;42.654;23.316;2023-04-02T02:32:38;93687.84;;;11.08;46.27
29197;BME280;62796;42.654;23.316;2023-04-02T02:35:17;93687.84;;;11.08;45.65
29197;BME280;62796;42.654;23.316;2023-04-02T02:37:47;93654.41;;;10.90;45.53
29197;BME280;62796;42.654;23.316;2023-04-02T02:40:25;93681.56;;;11.02;45.45
29197;BME280;62796;42.654;23.316;2023-04-02T02:43:01;93673.28;;;10.97;45.60
29197;BME280;62796;42.654;23.316;2023-04-02T02:45:34;93681.09;;;10.93;44.85
29197;BME280;62796;42.654;23.316;2023-04-02T02:48:02;93670.75;;;10.93;44.67
29197;BME280;62796;42.654;23.316;2023-04-02T02:50:31;93672.00;;;10.98;44.69
29197;BME280;62796;42.654;23.316;2023-04-02T02:52:59;93674.00;;;11.03;44.21
29197;BME280;62796;42.654;23.316;2023-04-02T02:55:32;93678.06;;;11.02;44.54
29197;BME280;62796;42.654;23.316;2023-04-02T02:58:09;93684.59;;;11.04;44.45
29197;BME280;62796;42.654;23.316;2023-04-02T03:00:36;93679.81;;;11.05;44.24
29197;BME280;62796;42.654;23.316;2023-04-02T03:03:06;93658.19;;;10.92;44.09
29197;BME280;62796;42.654;23.316;2023-04-02T03:05:34;93678.28;;;11.09;43.08
29197;BME280;62796;42.654;23.316;2023-04-02T03:08:02;93676.50;;;11.12;42.02
29197;BME280;62796;42.654;23.316;2023-04-02T03:11:27;93656.19;;;10.93;42.33
29197;BME280;62796;42.654;23.316;2023-04-02T03:13:33;93653.13;;;10.96;41.85
29197;BME280;62796;42.654;23.316;2023-04-02T03:16:17;93677.50;;;11.09;41.84
29197;BME280;62796;42.654;23.316;2023-04-02T03:19:22;93680.53;;;11.11;41.97
29197;BME280;62796;42.654;23.316;2023-04-02T03:24:58;93692.88;;;11.16;41.97
29197;BME280;62796;42.654;23.316;2023-04-02T03:27:29;93696.69;;;11.07;41.94
29197;BME280;62796;42.654;23.316;2023-04-02T03:30:20;93715.81;;;10.99;46.03
29197;BME280;62796;42.654;23.316;2023-04-02T03:32:52;93696.75;;;10.79;47.32
29197;BME280;62796;42.654;23.316;2023-04-02T03:35:34;93701.28;;;10.71;47.98
29197;BME280;62796;42.654;23.316;2023-04-02T03:38:13;93706.09;;;10.65;48.41
29197;BME280;62796;42.654;23.316;2023-04-02T03:40:53;93711.38;;;10.57;48.78
29197;BME280;62796;42.654;23.316;2023-04-02T03:43:24;93709.13;;;10.50;48.81
29197;BME280;62796;42.654;23.316;2023-04-02T03:45:52;93698.81;;;10.29;49.05
29197;BME280;62796;42.654;23.316;2023-04-02T03:48:37;93705.34;;;10.31;49.56
29197;BME280;62796;42.654;23.316;2023-04-02T03:51:15;93701.59;;;10.29;49.64
29197;BME280;62796;42.654;23.316;2023-04-02T03:53:43;93679.16;;;9.99;49.75
29197;BME280;62796;42.654;23.316;2023-04-02T03:56:49;93693.75;;;10.05;49.56
29197;BME280;62796;42.654;23.316;2023-04-02T04:01:57;93693.75;;;9.94;50.43
29197;BME280;62796;42.654;23.316;2023-04-02T04:04:27;93701.53;;;9.95;50.24
29197;BME280;62796;42.654;23.316;2023-04-02T04:06:55;93697.28;;;10.00;49.47
29197;BME280;62796;42.654;23.316;2023-04-02T04:09:34;93675.63;;;9.76;49.71
29197;BME280;62796;42.654;23.316;2023-04-02T04:12:11;93702.00;;;9.66;51.30
29197;BME280;62796;42.654;23.316;2023-04-02T04:14:42;93711.19;;;9.35;52.43
29197;BME280;62796;42.654;23.316;2023-04-02T04:19:43;93709.16;;;9.19;53.30
29197;BME280;62796;42.654;23.316;2023-04-02T04:22:21;93683.50;;;9.08;53.06
29197;BME280;62796;42.654;23.316;2023-04-02T04:24:57;93721.50;;;9.35;53.06
29197;BME280;62796;42.654;23.316;2023-04-02T04:30:27;93730.28;;;9.33;52.76
29197;BME280;62796;42.654;23.316;2023-04-02T04:35:45;93706.28;;;8.55;55.03
29197;BME280;62796;42.654;23.316;2023-04-02T04:38:16;93733.03;;;8.80;55.00
29197;BME280;62796;42.654;23.316;2023-04-02T04:40:48;93747.00;;;8.65;55.40
29197;BME280;62796;42.654;23.316;2023-04-02T04:49:35;93752.13;;;8.78;55.13
29197;BME280;62796;42.654;23.316;2023-04-02T04:52:25;93748.16;;;8.90;55.05
29197;BME280;62796;42.654;23.316;2023-04-02T04:54:51;93755.53;;;9.04;54.47
29197;BME280;62796;42.654;23.316;2023-04-02T04:57:28;93734.91;;;9.00;54.13
29197;BME280;62796;42.654;23.316;2023-04-02T05:01:06;93750.38;;;9.28;53.69
29197;BME280;62796;42.654;23.316;2023-04-02T05:03:25;93762.50;;;9.48;53.22
29197;BME280;62796;42.654;23.316;2023-04-02T05:06:00;93756.00;;;9.62;52.90
29197;BME280;62796;42.654;23.316;2023-04-02T05:08:29;93749.53;;;9.70;52.48
29197;BME280;62796;42.654;23.316;2023-04-02T05:10:59;93754.53;;;9.72;51.90
29197;BME280;62796;42.654;23.316;2023-04-02T05:13:38;93746.53;;;9.85;51.97
29197;BME280;62796;42.654;23.316;2023-04-02T05:18:40;93753.16;;;10.15;51.57
29197;BME280;62796;42.654;23.316;2023-04-02T05:21:27;93747.63;;;10.26;50.62
29197;BME280;62796;42.654;23.316;2023-04-02T05:26:31;93770.28;;;10.64;49.86
29197;BME280;62796;42.654;23.316;2023-04-02T05:31:46;93775.53;;;10.95;48.87
29197;BME280;62796;42.654;23.316;2023-04-02T05:34:24;93755.63;;;10.91;48.58
29197;BME280;62796;42.654;23.316;2023-04-02T05:36:52;93777.22;;;11.31;47.67
29197;BME280;62796;42.654;23.316;2023-04-02T05:39:22;93777.69;;;11.46;46.80
29197;BME280;62796;42.654;23.316;2023-04-02T05:42:03;93774.84;;;11.63;46.94
29197;BME280;62796;42.654;23.316;2023-04-02T05:44:35;93784.16;;;11.71;46.80
29197;BME280;62796;42.654;23.316;2023-04-02T05:47:15;93772.75;;;11.86;45.88
29197;BME280;62796;42.654;23.316;2023-04-02T05:49:51;93759.13;;;11.88;45.52
29197;BME280;62796;42.654;23.316;2023-04-02T05:52:32;93772.03;;;12.26;45.35
29197;BME280;62796;42.654;23.316;2023-04-02T05:55:20;93776.16;;;12.49;45.49
29197;BME280;62796;42.654;23.316;2023-04-02T05:57:51;93780.56;;;12.63;44.43
29197;BME280;62796;42.654;23.316;2023-04-02T06:00:23;93783.50;;;12.76;43.93
29197;BME280;62796;42.654;23.316;2023-04-02T06:02:57;93780.50;;;12.74;43.88
29197;BME280;62796;42.654;23.316;2023-04-02T06:05:31;93775.50;;;12.67;43.96
29197;BME280;62796;42.654;23.316;2023-04-02T06:08:04;93787.09;;;12.71;44.21
29197;BME280;62796;42.654;23.316;2023-04-02T06:10:46;93786.28;;;13.06;43.52
29197;BME280;62796;42.654;23.316;2023-04-02T06:13:17;93786.25;;;13.36;43.09
29197;BME280;62796;42.654;23.316;2023-04-02T06:15:43;93794.03;;;13.67;41.97
29197;BME280;62796;42.654;23.316;2023-04-02T06:18:19;93777.88;;;13.84;41.39
29197;BME280;62796;42.654;23.316;2023-04-02T06:20:46;93793.19;;;14.15;40.60
29197;BME280;62796;42.654;23.316;2023-04-02T06:25:48;93776.22;;;14.32;40.34
29197;BME280;62796;42.654;23.316;2023-04-02T06:28:20;93796.03;;;14.66;39.72
29197;BME280;62796;42.654;23.316;2023-04-02T06:30:50;93792.53;;;14.78;38.88
29197;BME280;62796;42.654;23.316;2023-04-02T06:33:17;93791.50;;;14.94;38.99
29197;BME280;62796;42.654;23.316;2023-04-02T06:35:43;93794.47;;;15.15;38.22
29197;BME280;62796;42.654;23.316;2023-04-02T06:38:17;93782.78;;;15.30;37.99
29197;BME280;62796;42.654;23.316;2023-04-02T06:40:56;93783.03;;;15.45;38.07
29197;BME280;62796;42.654;23.316;2023-04-02T06:45:52;93785.78;;;15.77;37.32
29197;BME280;62796;42.654;23.316;2023-04-02T06:48:20;93798.00;;;16.00;36.98
29197;BME280;62796;42.654;23.316;2023-04-02T06:50:52;93795.34;;;16.28;35.17
29197;BME280;62796;42.654;23.316;2023-04-02T06:53:32;93800.81;;;16.47;34.87
29197;BME280;62796;42.654;23.316;2023-04-02T06:59:01;93793.03;;;16.53;35.14
29197;BME280;62796;42.654;23.316;2023-04-02T07:01:43;93805.25;;;16.76;34.94
29197;BME280;62796;42.654;23.316;2023-04-02T07:04:10;93799.28;;;16.93;34.22
29197;BME280;62796;42.654;23.316;2023-04-02T07:06:36;93807.34;;;16.63;34.07
29197;BME280;62796;42.654;23.316;2023-04-02T07:09:02;93787.09;;;16.36;34.57
29197;BME280;62796;42.654;23.316;2023-04-02T07:11:28;93813.47;;;16.61;35.22
29197;BME280;62796;42.654;23.316;2023-04-02T07:13:54;93784.22;;;16.62;34.71
29197;BME280;62796;42.654;23.316;2023-04-02T07:16:22;93810.63;;;16.74;34.34
29197;BME280;62796;42.654;23.316;2023-04-02T07:18:50;93814.41;;;16.97;32.38
29197;BME280;62796;42.654;23.316;2023-04-02T07:21:15;93811.53;;;16.69;32.05
29197;BME280;62796;42.654;23.316;2023-04-02T07:23:41;93797.09;;;16.78;32.12
29197;BME280;62796;42.654;23.316;2023-04-02T07:26:08;93811.44;;;17.16;32.04
29197;BME280;62796;42.654;23.316;2023-04-02T07:28:35;93814.56;;;17.12;31.46
29197;BME280;62796;42.654;23.316;2023-04-02T07:31:01;93826.66;;;17.28;31.34
29197;BME280;62796;42.654;23.316;2023-04-02T07:33:28;93811.63;;;17.59;30.20
29197;BME280;62796;42.654;23.316;2023-04-02T07:35:55;93813.69;;;17.87;30.05
29197;BME280;62796;42.654;23.316;2023-04-02T07:38:22;93810.78;;;17.72;29.72
29197;BME280;62796;42.654;23.316;2023-04-02T07:40:47;93822.00;;;18.00;29.76
29197;BME280;62796;42.654;23.316;2023-04-02T07:43:13;93812.53;;;17.83;28.70
29197;BME280;62796;42.654;23.316;2023-04-02T07:45:38;93827.78;;;17.74;29.20
29197;BME280;62796;42.654;23.316;2023-04-02T07:48:05;93824.06;;;18.07;28.37
29197;BME280;62796;42.654;23.316;2023-04-02T07:50:31;93823.19;;;18.48;28.08
29197;BME280;62796;42.654;23.316;2023-04-02T07:52:57;93823.06;;;18.61;27.25
29197;BME280;62796;42.654;23.316;2023-04-02T07:55:22;93833.47;;;17.89;28.62
29197;BME280;62796;42.654;23.316;2023-04-02T07:57:49;93817.78;;;17.86;28.63
29197;BME280;62796;42.654;23.316;2023-04-02T08:00:15;93815.13;;;18.45;28.15
29197;BME280;62796;42.654;23.316;2023-04-02T08:02:41;93806.09;;;18.82;27.36
29197;BME280;62796;42.654;23.316;2023-04-02T08:05:07;93809.94;;;19.22;26.54
29197;BME280;62796;42.654;23.316;2023-04-02T08:07:33;93812.22;;;19.62;26.07
29197;BME280;62796;42.654;23.316;2023-04-02T08:09:59;93820.66;;;19.69;25.36
29197;BME280;62796;42.654;23.316;2023-04-02T08:12:25;93820.81;;;18.60;26.90
29197;BME280;62796;42.654;23.316;2023-04-02T08:14:50;93829.25;;;18.32;27.69
29197;BME280;62796;42.654;23.316;2023-04-02T08:17:16;93830.56;;;18.66;27.42
29197;BME280;62796;42.654;23.316;2023-04-02T08:19:41;93829.06;;;18.73;27.64
29197;BME280;62796;42.654;23.316;2023-04-02T08:22:09;93838.41;;;18.68;27.31
29197;BME280;62796;42.654;23.316;2023-04-02T08:24:34;93815.50;;;18.49;27.52
29197;BME280;62796;42.654;23.316;2023-04-02T08:27:00;93830.97;;;18.78;27.79
29197;BME280;62796;42.654;23.316;2023-04-02T08:29:26;93830.09;;;18.98;27.33
29197;BME280;62796;42.654;23.316;2023-04-02T08:31:59;93828.44;;;19.10;27.16
29197;BME280;62796;42.654;23.316;2023-04-02T08:34:24;93834.00;;;18.95;27.13
29197;BME280;62796;42.654;23.316;2023-04-02T08:36:50;93834.00;;;18.95;26.99
29197;BME280;62796;42.654;23.316;2023-04-02T08:39:19;93834.91;;;18.75;27.19
29197;BME280;62796;42.654;23.316;2023-04-02T08:41:55;93834.19;;;18.97;26.96
29197;BME280;62796;42.654;23.316;2023-04-02T08:46:58;93847.25;;;19.53;26.05
29197;BME280;62796;42.654;23.316;2023-04-02T08:49:38;93836.00;;;19.61;26.05
29197;BME280;62796;42.654;23.316;2023-04-02T08:52:04;93841.81;;;19.85;25.62
29197;BME280;62796;42.654;23.316;2023-04-02T08:54:34;93839.34;;;20.12;25.29
29197;BME280;62796;42.654;23.316;2023-04-02T08:59:43;93837.44;;;20.37;25.11
29197;BME280;62796;42.654;23.316;2023-04-02T09:02:24;93838.84;;;20.69;24.98
29197;BME280;62796;42.654;23.316;2023-04-02T09:04:52;93826.44;;;20.72;24.27
29197;BME280;62796;42.654;23.316;2023-04-02T09:07:18;93829.03;;;20.77;23.79
29197;BME280;62796;42.654;23.316;2023-04-02T09:09:46;93832.75;;;20.87;23.85
29197;BME280;62796;42.654;23.316;2023-04-02T09:12:30;93842.41;;;21.09;23.30
29197;BME280;62796;42.654;23.316;2023-04-02T09:17:31;93839.78;;;21.04;22.87
29197;BME280;62796;42.654;23.316;2023-04-02T09:22:44;93835.72;;;21.62;22.48
29197;BME280;62796;42.654;23.316;2023-04-02T09:25:16;93825.00;;;21.85;22.26
29197;BME280;62796;42.654;23.316;2023-04-02T09:27:49;93830.63;;;21.85;22.76
29197;BME280;62796;42.654;23.316;2023-04-02T09:32:51;93821.13;;;20.28;23.89
29197;BME280;62796;42.654;23.316;2023-04-02T09:43:25;93819.75;;;20.52;23.58
29197;BME280;62796;42.654;23.316;2023-04-02T09:46:23;93822.97;;;20.88;23.42
29197;BME280;62796;42.654;23.316;2023-04-02T09:48:52;93816.28;;;20.76;22.70
29197;BME280;62796;42.654;23.316;2023-04-02T09:51:26;93810.09;;;20.30;23.69
29197;BME280;62796;42.654;23.316;2023-04-02T09:56:33;93811.47;;;20.62;23.81
29197;BME280;62796;42.654;23.316;2023-04-02T10:01:46;93810.94;;;20.56;22.99
29197;BME280;62796;42.654;23.316;2023-04-02T10:07:03;93804.66;;;18.96;24.11
29197;BME280;62796;42.654;23.316;2023-04-02T10:09:32;93800.03;;;19.37;24.45
29197;BME280;62796;42.654;23.316;2023-04-02T10:12:01;93791.41;;;19.34;23.95
29197;BME280;62796;42.654;23.316;2023-04-02T10:14:32;93793.31;;;18.22;26.07
29197;BME280;62796;42.654;23.316;2023-04-02T10:17:02;93806.03;;;18.59;25.19
29197;BME280;62796;42.654;23.316;2023-04-02T10:19:36;93791.19;;;18.44;26.20
29197;BME280;62796;42.654;23.316;2023-04-02T10:22:14;93792.50;;;18.43;25.87
29197;BME280;62796;42.654;23.316;2023-04-02T10:24:41;93795.25;;;18.28;25.71
29197;BME280;62796;42.654;23.316;2023-04-02T10:35:02;93799.28;;;19.28;24.50
29197;BME280;62796;42.654;23.316;2023-04-02T10:40:33;93805.56;;;18.84;27.22
29197;BME280;62796;42.654;23.316;2023-04-02T10:48:43;93772.94;;;20.39;25.40
29197;BME280;62796;42.654;23.316;2023-04-02T10:56:52;93766.91;;;19.73;26.53
29197;BME280;62796;42.654;23.316;2023-04-02T10:59:23;93782.03;;;20.00;25.46
29197;BME280;62796;42.654;23.316;2023-04-02T11:01:54;93778.19;;;20.35;25.61
29197;BME280;62796;42.654;23.316;2023-04-02T11:04:26;93779.91;;;20.78;24.58
29197;BME280;62796;42.654;23.316;2023-04-02T11:07:03;93788.03;;;20.99;24.24
29197;BME280;62796;42.654;23.316;2023-04-02T11:09:35;93786.09;;;21.09;24.23
29197;BME280;62796;42.654;23.316;2023-04-02T11:12:04;93779.00;;;21.08;24.17
29197;BME280;62796;42.654;23.316;2023-04-02T11:14:31;93767.75;;;20.68;24.49
29197;BME280;62796;42.654;23.316;2023-04-02T11:16:59;93761.19;;;20.66;24.55
29197;BME280;62796;42.654;23.316;2023-04-02T11:19:33;93785.84;;;20.90;24.71
29197;BME280;62796;42.654;23.316;2023-04-02T11:22:22;93786.66;;;20.75;24.84
29197;BME280;62796;42.654;23.316;2023-04-02T11:24:50;93785.31;;;20.84;24.86
29197;BME280;62796;42.654;23.316;2023-04-02T11:30:10;93776.59;;;21.29;23.85
29197;BME280;62796;42.654;23.316;2023-04-02T11:32:44;93747.97;;;21.40;23.82
29197;BME280;62796;42.654;23.316;2023-04-02T11:37:59;93765.13;;;21.77;23.28
29197;BME280;62796;42.654;23.316;2023-04-02T11:40:47;93762.13;;;21.75;22.86
29197;BME280;62796;42.654;23.316;2023-04-02T11:45:58;93756.72;;;22.28;21.92
29197;BME280;62796;42.654;23.316;2023-04-02T11:48:26;93733.41;;;22.11;21.89
29197;BME280;62796;42.654;23.316;2023-04-02T11:50:52;93765.44;;;22.05;22.10
29197;BME280;62796;42.654;23.316;2023-04-02T11:53:25;93755.41;;;21.95;21.91
29197;BME280;62796;42.654;23.316;2023-04-02T12:01:15;93752.72;;;22.48;22.20
29197;BME280;62796;42.654;23.316;2023-04-02T12:11:44;93749.38;;;23.66;20.59
29197;BME280;62796;42.654;23.316;2023-04-02T12:16:56;93734.56;;;23.39;20.41
29197;BME280;62796;42.654;23.316;2023-04-02T12:19:22;93747.50;;;23.42;20.39
29197;BME280;62796;42.654;23.316;2023-04-02T12:21:51;93751.88;;;23.26;20.64
29197;BME280;62796;42.654;23.316;2023-04-02T12:24:22;93748.50;;;23.37;20.72
29197;BME280;62796;42.654;23.316;2023-04-02T12:27:09;93728.41;;;23.33;20.67
29197;BME280;62796;42.654;23.316;2023-04-02T12:29:39;93751.78;;;23.70;20.23
29197;BME280;62796;42.654;23.316;2023-04-02T12:32:17;93747.34;;;23.77;19.73
29197;BME280;62796;42.654;23.316;2023-04-02T12:34:44;93742.78;;;23.54;19.90
29197;BME280;62796;42.654;23.316;2023-04-02T12:37:19;93741.34;;;23.73;19.58
29197;BME280;62796;42.654;23.316;2023-04-02T12:39:51;93740.56;;;23.62;20.13
29197;BME280;62796;42.654;23.316;2023-04-02T12:42:28;93748.31;;;24.17;19.77
29197;BME280;62796;42.654;23.316;2023-04-02T12:44:54;93741.25;;;23.07;20.32
29197;BME280;62796;42.654;23.316;2023-04-02T12:47:20;93726.06;;;21.98;21.88
29197;BME280;62796;42.654;23.316;2023-04-02T12:49:45;93739.84;;;22.55;21.13
29197;BME280;62796;42.654;23.316;2023-04-02T12:52:14;93734.44;;;22.84;20.38
29197;BME280;62796;42.654;23.316;2023-04-02T12:57:21;93727.75;;;23.52;19.75
29197;BME280;62796;42.654;23.316;2023-04-02T12:59:47;93710.03;;;24.26;18.89
29197;BME280;62796;42.654;23.316;2023-04-02T13:04:57;93721.94;;;24.82;18.30
29197;BME280;62796;42.654;23.316;2023-04-02T13:07:30;93726.38;;;24.95;18.09
29197;BME280;62796;42.654;23.316;2023-04-02T13:09:58;93721.84;;;25.20;17.69
29197;BME280;62796;42.654;23.316;2023-04-02T13:12:34;93723.78;;;25.18;17.64
29197;BME280;62796;42.654;23.316;2023-04-02T13:15:08;93724.28;;;24.95;17.51
29197;BME280;62796;42.654;23.316;2023-04-02T13:22:54;93704.47;;;23.90;18.34
29197;BME280;62796;42.654;23.316;2023-04-02T13:25:29;93722.09;;;24.17;18.46
29197;BME280;62796;42.654;23.316;2023-04-02T13:27:56;93710.88;;;23.81;18.57
29197;BME280;62796;42.654;23.316;2023-04-02T13:30:24;93717.09;;;23.69;19.04
29197;BME280;62796;42.654;23.316;2023-04-02T13:32:50;93717.53;;;23.56;19.20
29197;BME280;62796;42.654;23.316;2023-04-02T13:35:15;93718.34;;;23.95;18.94
29197;BME280;62796;42.654;23.316;2023-04-02T13:37:41;93710.66;;;24.15;18.58
29197;BME280;62796;42.654;23.316;2023-04-02T13:40:11;93720.38;;;25.10;17.78
29197;BME280;62796;42.654;23.316;2023-04-02T13:42:37;93721.34;;;24.84;17.62
29197;BME280;62796;42.654;23.316;2023-04-02T13:45:04;93716.59;;;24.38;18.08
29197;BME280;62796;42.654;23.316;2023-04-02T13:47:31;93731.16;;;24.06;18.65
29197;BME280;62796;42.654;23.316;2023-04-02T13:49:56;93721.78;;;24.03;18.30
29197;BME280;62796;42.654;23.316;2023-04-02T13:52:22;93713.72;;;24.00;18.22
29197;BME280;62796;42.654;23.316;2023-04-02T13:54:53;93721.25;;;23.68;18.47
29197;BME280;62796;42.654;23.316;2023-04-02T13:57:20;93705.66;;;22.95;18.75
29197;BME280;62796;42.654;23.316;2023-04-02T13:59:45;93710.34;;;22.83;18.95
29197;BME280;62796;42.654;23.316;2023-04-02T14:02:19;93710.75;;;22.79;19.06
29197;BME280;62796;42.654;23.316;2023-04-02T14:04:51;93713.56;;;22.70;19.42
29197;BME280;62796;42.654;23.316;2023-04-02T14:24:59;93715.88;;;20.86;21.06
29197;BME280;62796;42.654;23.316;2023-04-02T14:27:12;93712.53;;;20.48;21.67
29197;BME280;62796;42.654;23.316;2023-04-02T14:42:52;93712.69;;;20.03;22.36
29197;BME280;62796;42.654;23.316;2023-04-02T14:48:29;93698.00;;;19.34;22.73
29197;BME280;62796;42.654;23.316;2023-04-02T14:51:00;93705.50;;;19.31;23.13
29197;BME280;62796;42.654;23.316;2023-04-02T14:53:43;93703.47;;;19.40;23.44
29197;BME280;62796;42.654;23.316;2023-04-02T14:56:13;93708.50;;;19.33;23.59
29197;BME280;62796;42.654;23.316;2023-04-02T14:58:43;93712.25;;;19.28;23.46
29197;BME280;62796;42.654;23.316;2023-04-02T15:01:18;93693.72;;;18.95;23.66
29197;BME280;62796;42.654;23.316;2023-04-02T15:04:00;93716.00;;;19.08;23.73
29197;BME280;62796;42.654;23.316;2023-04-02T15:06:30;93716.72;;;18.94;23.83
29197;BME280;62796;42.654;23.316;2023-04-02T15:09:06;93727.38;;;18.88;24.02
29197;BME280;62796;42.654;23.316;2023-04-02T15:11:38;93719.53;;;18.78;24.13
29197;BME280;62796;42.654;23.316;2023-04-02T15:16:57;93713.91;;;18.86;24.15
29197;BME280;62796;42.654;23.316;2023-04-02T15:19:23;93717.69;;;18.96;24.13
29197;BME280;62796;42.654;23.316;2023-04-02T15:21:59;93720.28;;;18.94;23.78
29197;BME280;62796;42.654;23.316;2023-04-02T15:25:02;93728.69;;;18.94;24.08
29197;BME280;62796;42.654;23.316;2023-04-02T15:30:22;93730.00;;;18.93;23.85
29197;BME280;62796;42.654;23.316;2023-04-02T15:32:49;93721.38;;;18.91;23.50
29197;BME280;62796;42.654;23.316;2023-04-02T15:38:00;93724.72;;;18.67;24.07
29197;BME280;62796;42.654;23.316;2023-04-02T15:41:07;93727.34;;;18.65;24.03
29197;BME280;62796;42.654;23.316;2023-04-02T15:43:53;93724.91;;;18.54;24.20
29197;BME280;62796;42.654;23.316;2023-04-02T15:49:38;93725.75;;;18.34;24.38
29197;BME280;62796;42.654;23.316;2023-04-02T15:52:14;93728.31;;;18.24;24.42
29197;BME280;62796;42.654;23.316;2023-04-02T15:54:52;93732.34;;;18.00;24.47
29197;BME280;62796;42.654;23.316;2023-04-02T16:08:27;93746.38;;;17.72;24.37
29197;BME280;62796;42.654;23.316;2023-04-02T16:10:56;93746.56;;;17.74;24.18
29197;BME280;62796;42.654;23.316;2023-04-02T16:15:51;93744.56;;;17.82;24.39
29197;BME280;62796;42.654;23.316;2023-04-02T16:18:48;93744.75;;;17.84;24.61
29197;BME280;62796;42.654;23.316;2023-04-02T16:21:21;93741.94;;;17.84;24.83
29197;BME280;62796;42.654;23.316;2023-04-02T16:23:47;93746.25;;;17.85;24.85
29197;BME280;62796;42.654;23.316;2023-04-02T16:26:30;93747.16;;;17.80;24.66
29197;BME280;62796;42.654;23.316;2023-04-02T16:31:49;93758.34;;;17.80;25.26
29197;BME280;62796;42.654;23.316;2023-04-02T16:34:51;93761.59;;;17.56;25.99
29197;BME280;62796;42.654;23.316;2023-04-02T16:38:19;93748.97;;;17.21;26.59
29197;BME280;62796;42.654;23.316;2023-04-02T16:40:34;93760.72;;;16.78;27.17
29197;BME280;62796;42.654;23.316;2023-04-02T16:48:37;93758.75;;;16.19;27.84
29197;BME280;62796;42.654;23.316;2023-04-02T16:51:31;93766.31;;;15.97;28.52
29197;BME280;62796;42.654;23.316;2023-04-02T16:54:12;93761.81;;;15.94;28.45